This is the latest recevied weather packets stored in our database for station/object OM6ACB-6. If no packets are shown the sender has not sent any weather packets the latest 10 day(s).
| Time | Temp. | Humidity | Pressure | Rain* | Wind** | Luminosity | Snow |
|---|---|---|---|---|---|---|---|
| 1777771990 | 2.22° C | 39% | 1021.8 hPa | 0 mm | - | - | - |
| 1777771390 | 2.22° C | 39% | 1021.7 hPa | 0 mm | - | - | - |
| 1777770789 | 3.89° C | 32% | 1021.9 hPa | 0 mm | - | - | - |
| 1777770189 | 3.89° C | 32% | 1021.9 hPa | 0 mm | - | - | - |
| 1777769589 | 3.89° C | 32% | 1021.8 hPa | 0 mm | - | - | - |
| 1777768988 | 3.89° C | 32% | 1021.8 hPa | 0 mm | - | - | - |
| 1777768388 | 3.89° C | 32% | 1021.8 hPa | 0 mm | - | - | - |
| 1777767788 | 3.89° C | 32% | 1021.9 hPa | 0 mm | - | - | - |
| 1777767187 | 3.89° C | 32% | 1021.8 hPa | 0 mm | - | - | - |
| 1777766587 | 4.44° C | 30% | 1022 hPa | 0 mm | - | - | - |
| 1777765987 | 5° C | 30% | 1022.2 hPa | 0 mm | - | - | - |
| 1777765387 | 5° C | 30% | 1022.2 hPa | 0 mm | - | - | - |
| 1777764786 | 5° C | 30% | 1022.1 hPa | 0 mm | - | - | - |
| 1777764186 | 5° C | 30% | 1022.1 hPa | 0 mm | - | - | - |
| 1777763586 | 5° C | 30% | 1022.1 hPa | 0 mm | - | - | - |
| 1777762985 | 7.22° C | 29% | 1022.4 hPa | 0 mm | - | - | - |
| 1777762385 | 7.22° C | 29% | 1022.5 hPa | 0 mm | - | - | - |
| 1777761785 | 7.22° C | 29% | 1022.5 hPa | 0 mm | - | - | - |
| 1777761185 | 7.22° C | 29% | 1022.5 hPa | 0 mm | - | - | - |
| 1777760584 | 7.78° C | 29% | 1022.5 hPa | 0 mm | - | - | - |
| 1777759984 | 7.78° C | 29% | 1022.7 hPa | 0 mm | - | - | - |
| 1777759384 | 7.78° C | 29% | 1022.5 hPa | 0 mm | - | - | - |
| 1777758783 | 7.78° C | 29% | 1022.4 hPa | 0 mm | - | - | - |
| 1777758183 | 7.78° C | 29% | 1022.3 hPa | 0 mm | - | - | - |
| 1777757583 | -36.11° C | - | - | - | - | - | - |
* Rain latest hour (hover to see other rain measurements)
** Current wind speed in m/s (hover to see current wind gust speed)